sensor_id;sensor_type;location;lat;lon;timestamp;temperature;humidity
39401;DHT22;54391;50.000;7.360;2023-01-25T00:01:01;-1.20;97.20
39401;DHT22;54391;50.000;7.360;2023-01-25T00:03:29;-1.20;97.40
39401;DHT22;54391;50.000;7.360;2023-01-25T00:06:00;-1.20;97.60
39401;DHT22;54391;50.000;7.360;2023-01-25T00:08:28;-0.90;97.90
39401;DHT22;54391;50.000;7.360;2023-01-25T00:10:55;-0.90;98.60
39401;DHT22;54391;50.000;7.360;2023-01-25T00:13:22;-1.00;97.50
39401;DHT22;54391;50.000;7.360;2023-01-25T00:15:49;-1.10;97.40
39401;DHT22;54391;50.000;7.360;2023-01-25T00:18:16;-1.20;97.70
39401;DHT22;54391;50.000;7.360;2023-01-25T00:20:43;-1.30;97.20
39401;DHT22;54391;50.000;7.360;2023-01-25T00:23:12;-1.30;98.20
39401;DHT22;54391;50.000;7.360;2023-01-25T00:25:39;-1.30;98.10
39401;DHT22;54391;50.000;7.360;2023-01-25T00:28:06;-1.30;98.30
39401;DHT22;54391;50.000;7.360;2023-01-25T00:30:33;-1.30;97.80
39401;DHT22;54391;50.000;7.360;2023-01-25T00:33:02;-1.40;98.30
39401;DHT22;54391;50.000;7.360;2023-01-25T00:35:32;-1.30;98.50
39401;DHT22;54391;50.000;7.360;2023-01-25T00:38:00;-1.30;98.70
39401;DHT22;54391;50.000;7.360;2023-01-25T00:40:30;-1.00;98.30
39401;DHT22;54391;50.000;7.360;2023-01-25T00:42:57;-1.20;98.90
39401;DHT22;54391;50.000;7.360;2023-01-25T00:45:25;-1.20;98.90
39401;DHT22;54391;50.000;7.360;2023-01-25T00:47:53;-1.20;98.90
39401;DHT22;54391;50.000;7.360;2023-01-25T00:50:21;-1.20;98.30
39401;DHT22;54391;50.000;7.360;2023-01-25T00:52:48;-1.20;99.00
39401;DHT22;54391;50.000;7.360;2023-01-25T00:55:15;-1.20;99.10
39401;DHT22;54391;50.000;7.360;2023-01-25T00:57:43;-1.10;99.10
39401;DHT22;54391;50.000;7.360;2023-01-25T01:00:11;-1.00;98.60
39401;DHT22;54391;50.000;7.360;2023-01-25T01:02:38;-1.00;99.50
39401;DHT22;54391;50.000;7.360;2023-01-25T01:05:05;-1.00;99.50
39401;DHT22;54391;50.000;7.360;2023-01-25T01:07:33;-1.00;99.60
39401;DHT22;54391;50.000;7.360;2023-01-25T01:10:00;-0.80;99.00
39401;DHT22;54391;50.000;7.360;2023-01-25T01:12:27;-1.00;99.50
39401;DHT22;54391;50.000;7.360;2023-01-25T01:14:56;-1.10;99.60
39401;DHT22;54391;50.000;7.360;2023-01-25T01:17:23;-1.10;99.30
39401;DHT22;54391;50.000;7.360;2023-01-25T01:19:50;-1.20;98.60
39401;DHT22;54391;50.000;7.360;2023-01-25T01:22:17;-1.20;99.20
39401;DHT22;54391;50.000;7.360;2023-01-25T01:24:46;-1.10;99.40
39401;DHT22;54391;50.000;7.360;2023-01-25T01:27:13;-1.10;99.50
39401;DHT22;54391;50.000;7.360;2023-01-25T01:29:40;-1.10;98.90
39401;DHT22;54391;50.000;7.360;2023-01-25T01:32:08;-1.10;99.60
39401;DHT22;54391;50.000;7.360;2023-01-25T01:34:35;-1.10;99.60
39401;DHT22;54391;50.000;7.360;2023-01-25T01:37:02;-1.20;99.40
39401;DHT22;54391;50.000;7.360;2023-01-25T01:39:29;-1.20;98.80
39401;DHT22;54391;50.000;7.360;2023-01-25T01:41:56;-1.20;99.40
39401;DHT22;54391;50.000;7.360;2023-01-25T01:47:06;-1.10;99.60
39401;DHT22;54391;50.000;7.360;2023-01-25T01:49:39;-1.00;99.00
39401;DHT22;54391;50.000;7.360;2023-01-25T01:52:14;-1.00;99.60
39401;DHT22;54391;50.000;7.360;2023-01-25T01:54:43;-1.10;99.70
39401;DHT22;54391;50.000;7.360;2023-01-25T01:57:12;-1.10;99.60
39401;DHT22;54391;50.000;7.360;2023-01-25T01:59:41;-1.10;99.00
39401;DHT22;54391;50.000;7.360;2023-01-25T02:02:10;-1.10;99.60
39401;DHT22;54391;50.000;7.360;2023-01-25T02:04:39;-1.10;99.70
39401;DHT22;54391;50.000;7.360;2023-01-25T02:07:12;-1.10;99.60
39401;DHT22;54391;50.000;7.360;2023-01-25T02:09:44;-1.10;99.20
39401;DHT22;54391;50.000;7.360;2023-01-25T02:12:11;-1.10;99.60
39401;DHT22;54391;50.000;7.360;2023-01-25T02:14:38;-1.10;99.60
39401;DHT22;54391;50.000;7.360;2023-01-25T02:17:11;-1.00;99.80
39401;DHT22;54391;50.000;7.360;2023-01-25T02:19:42;-1.10;99.00
39401;DHT22;54391;50.000;7.360;2023-01-25T02:22:10;-1.10;99.70
39401;DHT22;54391;50.000;7.360;2023-01-25T02:24:41;-1.10;99.70
39401;DHT22;54391;50.000;7.360;2023-01-25T02:27:11;-1.10;99.70
39401;DHT22;54391;50.000;7.360;2023-01-25T02:29:38;-1.20;99.00
39401;DHT22;54391;50.000;7.360;2023-01-25T02:32:06;-1.20;99.50
39401;DHT22;54391;50.000;7.360;2023-01-25T02:34:33;-1.20;99.50
39401;DHT22;54391;50.000;7.360;2023-01-25T02:37:02;-1.20;99.60
39401;DHT22;54391;50.000;7.360;2023-01-25T02:39:29;-1.10;99.20
39401;DHT22;54391;50.000;7.360;2023-01-25T02:41:56;-1.10;99.80
39401;DHT22;54391;50.000;7.360;2023-01-25T02:44:27;-1.10;99.80
39401;DHT22;54391;50.000;7.360;2023-01-25T02:46:55;-1.10;99.90
39401;DHT22;54391;50.000;7.360;2023-01-25T02:49:22;-1.20;99.00
39401;DHT22;54391;50.000;7.360;2023-01-25T02:51:49;-1.10;99.80
39401;DHT22;54391;50.000;7.360;2023-01-25T02:54:21;-1.10;99.90
39401;DHT22;54391;50.000;7.360;2023-01-25T02:56:49;-1.00;99.90
39401;DHT22;54391;50.000;7.360;2023-01-25T02:59:19;-1.00;99.20
39401;DHT22;54391;50.000;7.360;2023-01-25T03:01:52;-1.10;99.90
39401;DHT22;54391;50.000;7.360;2023-01-25T03:04:19;-1.10;99.90
39401;DHT22;54391;50.000;7.360;2023-01-25T03:06:47;-1.10;99.90
39401;DHT22;54391;50.000;7.360;2023-01-25T03:09:14;-1.10;99.40
39401;DHT22;54391;50.000;7.360;2023-01-25T03:11:45;-1.10;99.90
39401;DHT22;54391;50.000;7.360;2023-01-25T03:14:12;-1.20;99.80
39401;DHT22;54391;50.000;7.360;2023-01-25T03:16:39;-1.20;99.70
39401;DHT22;54391;50.000;7.360;2023-01-25T03:19:08;-1.20;99.10
39401;DHT22;54391;50.000;7.360;2023-01-25T03:21:38;-1.20;99.90
39401;DHT22;54391;50.000;7.360;2023-01-25T03:24:07;-1.20;99.80
39401;DHT22;54391;50.000;7.360;2023-01-25T03:26:39;-1.20;99.80
39401;DHT22;54391;50.000;7.360;2023-01-25T03:29:25;-1.00;99.20
39401;DHT22;54391;50.000;7.360;2023-01-25T03:31:53;-1.00;99.90
39401;DHT22;54391;50.000;7.360;2023-01-25T03:34:21;-1.10;99.90
39401;DHT22;54391;50.000;7.360;2023-01-25T03:36:48;-1.10;99.90
39401;DHT22;54391;50.000;7.360;2023-01-25T03:39:15;-0.90;99.70
39401;DHT22;54391;50.000;7.360;2023-01-25T03:41:42;-1.00;99.90
39401;DHT22;54391;50.000;7.360;2023-01-25T03:44:11;-1.00;99.90
39401;DHT22;54391;50.000;7.360;2023-01-25T03:46:40;-1.10;99.90
39401;DHT22;54391;50.000;7.360;2023-01-25T03:49:07;-1.10;99.40
39401;DHT22;54391;50.000;7.360;2023-01-25T03:51:36;-1.20;99.80
39401;DHT22;54391;50.000;7.360;2023-01-25T03:54:03;-1.30;99.60
39401;DHT22;54391;50.000;7.360;2023-01-25T03:56:34;-1.20;99.90
39401;DHT22;54391;50.000;7.360;2023-01-25T03:59:13;-1.10;99.50
39401;DHT22;54391;50.000;7.360;2023-01-25T04:01:40;-1.10;99.90
39401;DHT22;54391;50.000;7.360;2023-01-25T04:04:07;-1.10;99.90
39401;DHT22;54391;50.000;7.360;2023-01-25T04:06:38;-1.20;99.80
39401;DHT22;54391;50.000;7.360;2023-01-25T04:09:05;-1.30;99.20
39401;DHT22;54391;50.000;7.360;2023-01-25T04:11:38;-1.30;99.90
39401;DHT22;54391;50.000;7.360;2023-01-25T04:14:05;-1.30;99.80
39401;DHT22;54391;50.000;7.360;2023-01-25T04:16:40;-1.40;99.80
39401;DHT22;54391;50.000;7.360;2023-01-25T04:19:21;-1.30;99.30
39401;DHT22;54391;50.000;7.360;2023-01-25T04:21:50;-1.30;99.80
39401;DHT22;54391;50.000;7.360;2023-01-25T04:24:17;-1.30;99.80
39401;DHT22;54391;50.000;7.360;2023-01-25T04:26:44;-1.20;99.90
39401;DHT22;54391;50.000;7.360;2023-01-25T04:29:12;-1.10;99.60
39401;DHT22;54391;50.000;7.360;2023-01-25T04:31:39;-1.10;99.90
39401;DHT22;54391;50.000;7.360;2023-01-25T04:34:06;-1.00;99.90
39401;DHT22;54391;50.000;7.360;2023-01-25T04:36:33;-1.00;99.90
39401;DHT22;54391;50.000;7.360;2023-01-25T04:39:02;-0.90;99.60
39401;DHT22;54391;50.000;7.360;2023-01-25T04:41:29;-1.00;99.90
39401;DHT22;54391;50.000;7.360;2023-01-25T04:43:57;-1.10;99.90
39401;DHT22;54391;50.000;7.360;2023-01-25T04:46:24;-1.30;99.90
39401;DHT22;54391;50.000;7.360;2023-01-25T04:48:52;-1.40;99.10
39401;DHT22;54391;50.000;7.360;2023-01-25T04:51:20;-1.40;99.80
39401;DHT22;54391;50.000;7.360;2023-01-25T04:53:47;-1.30;99.90
39401;DHT22;54391;50.000;7.360;2023-01-25T04:56:15;-1.20;99.90
39401;DHT22;54391;50.000;7.360;2023-01-25T04:58:52;-1.20;99.60
39401;DHT22;54391;50.000;7.360;2023-01-25T05:01:20;-1.20;99.90
39401;DHT22;54391;50.000;7.360;2023-01-25T05:03:48;-1.20;99.90
39401;DHT22;54391;50.000;7.360;2023-01-25T05:06:24;-1.20;99.90
39401;DHT22;54391;50.000;7.360;2023-01-25T05:08:51;-1.10;99.50
39401;DHT22;54391;50.000;7.360;2023-01-25T05:11:20;-1.10;99.90
39401;DHT22;54391;50.000;7.360;2023-01-25T05:14:13;-0.20;99.90
39401;DHT22;54391;50.000;7.360;2023-01-25T05:16:42;-1.30;99.90
39401;DHT22;54391;50.000;7.360;2023-01-25T05:19:10;-1.10;99.70
39401;DHT22;54391;50.000;7.360;2023-01-25T05:21:48;-1.10;99.90
39401;DHT22;54391;50.000;7.360;2023-01-25T05:24:45;-1.10;99.90
39401;DHT22;54391;50.000;7.360;2023-01-25T05:27:16;-1.10;99.90
39401;DHT22;54391;50.000;7.360;2023-01-25T05:29:52;-1.00;99.90
39401;DHT22;54391;50.000;7.360;2023-01-25T05:32:25;-0.90;99.90
39401;DHT22;54391;50.000;7.360;2023-01-25T05:34:52;-1.00;99.90
39401;DHT22;54391;50.000;7.360;2023-01-25T05:37:20;-1.00;99.90
39401;DHT22;54391;50.000;7.360;2023-01-25T05:39:54;-0.90;99.80
39401;DHT22;54391;50.000;7.360;2023-01-25T05:42:24;-0.90;99.90
39401;DHT22;54391;50.000;7.360;2023-01-25T05:44:51;-1.00;99.90
39401;DHT22;54391;50.000;7.360;2023-01-25T05:47:19;-1.10;99.90
39401;DHT22;54391;50.000;7.360;2023-01-25T05:49:46;-1.20;99.50
39401;DHT22;54391;50.000;7.360;2023-01-25T05:52:23;-1.10;99.90
39401;DHT22;54391;50.000;7.360;2023-01-25T05:54:50;-1.10;99.90
39401;DHT22;54391;50.000;7.360;2023-01-25T05:57:17;-1.00;99.90
39401;DHT22;54391;50.000;7.360;2023-01-25T05:59:46;-1.00;99.60
39401;DHT22;54391;50.000;7.360;2023-01-25T06:02:17;-1.00;99.90
39401;DHT22;54391;50.000;7.360;2023-01-25T06:04:44;-1.10;99.90
39401;DHT22;54391;50.000;7.360;2023-01-25T06:07:12;-1.20;99.60
39401;DHT22;54391;50.000;7.360;2023-01-25T06:09:40;-1.10;99.30
39401;DHT22;54391;50.000;7.360;2023-01-25T06:12:07;-1.10;99.90
39401;DHT22;54391;50.000;7.360;2023-01-25T06:14:35;-1.00;99.90
39401;DHT22;54391;50.000;7.360;2023-01-25T06:17:04;-1.20;99.50
39401;DHT22;54391;50.000;7.360;2023-01-25T06:20:09;-1.10;99.60
39401;DHT22;54391;50.000;7.360;2023-01-25T06:22:47;-1.10;99.90
39401;DHT22;54391;50.000;7.360;2023-01-25T06:25:14;-1.00;99.90
39401;DHT22;54391;50.000;7.360;2023-01-25T06:27:41;-1.00;99.90
39401;DHT22;54391;50.000;7.360;2023-01-25T06:30:09;-1.00;99.50
39401;DHT22;54391;50.000;7.360;2023-01-25T06:32:38;-0.90;99.90
39401;DHT22;54391;50.000;7.360;2023-01-25T06:35:05;-1.00;99.90
39401;DHT22;54391;50.000;7.360;2023-01-25T06:37:32;-1.00;99.50
39401;DHT22;54391;50.000;7.360;2023-01-25T06:39:59;-0.80;99.50
39401;DHT22;54391;50.000;7.360;2023-01-25T06:42:27;-0.90;99.80
39401;DHT22;54391;50.000;7.360;2023-01-25T06:44:54;-1.00;98.90
39401;DHT22;54391;50.000;7.360;2023-01-25T06:47:21;-1.00;99.10
39401;DHT22;54391;50.000;7.360;2023-01-25T06:49:49;-1.10;98.40
39401;DHT22;54391;50.000;7.360;2023-01-25T06:52:17;-1.10;98.90
39401;DHT22;54391;50.000;7.360;2023-01-25T06:54:44;-1.00;98.90
39401;DHT22;54391;50.000;7.360;2023-01-25T06:57:11;-1.10;99.10
39401;DHT22;54391;50.000;7.360;2023-01-25T06:59:38;-1.00;98.30
39401;DHT22;54391;50.000;7.360;2023-01-25T07:02:05;-1.00;98.60
39401;DHT22;54391;50.000;7.360;2023-01-25T07:04:32;-1.10;98.20
39401;DHT22;54391;50.000;7.360;2023-01-25T07:07:00;-1.10;99.10
39401;DHT22;54391;50.000;7.360;2023-01-25T07:09:28;-1.20;97.20
39401;DHT22;54391;50.000;7.360;2023-01-25T07:11:55;-1.30;98.00
39401;DHT22;54391;50.000;7.360;2023-01-25T07:14:22;-1.30;98.50
39401;DHT22;54391;50.000;7.360;2023-01-25T07:16:49;-1.40;98.30
39401;DHT22;54391;50.000;7.360;2023-01-25T07:19:16;-1.30;98.70
39401;DHT22;54391;50.000;7.360;2023-01-25T07:21:43;-1.20;99.50
39401;DHT22;54391;50.000;7.360;2023-01-25T07:24:13;-1.40;98.40
39401;DHT22;54391;50.000;7.360;2023-01-25T07:26:41;-1.30;99.00
39401;DHT22;54391;50.000;7.360;2023-01-25T07:29:08;-1.20;98.40
39401;DHT22;54391;50.000;7.360;2023-01-25T07:31:37;-1.20;99.20
39401;DHT22;54391;50.000;7.360;2023-01-25T07:34:04;-1.30;98.20
39401;DHT22;54391;50.000;7.360;2023-01-25T07:36:31;-1.10;99.60
39401;DHT22;54391;50.000;7.360;2023-01-25T07:38:58;-1.00;98.90
39401;DHT22;54391;50.000;7.360;2023-01-25T07:41:27;-1.00;99.60
39401;DHT22;54391;50.000;7.360;2023-01-25T07:43:54;-1.10;99.00
39401;DHT22;54391;50.000;7.360;2023-01-25T07:46:47;-1.20;98.30
39401;DHT22;54391;50.000;7.360;2023-01-25T07:49:14;-1.30;97.20
39401;DHT22;54391;50.000;7.360;2023-01-25T07:51:41;-1.30;98.20
39401;DHT22;54391;50.000;7.360;2023-01-25T07:54:09;-1.50;97.60
39401;DHT22;54391;50.000;7.360;2023-01-25T07:56:38;-1.60;97.60
39401;DHT22;54391;50.000;7.360;2023-01-25T07:59:05;-1.40;98.20
39401;DHT22;54391;50.000;7.360;2023-01-25T08:01:33;-1.50;98.10
39401;DHT22;54391;50.000;7.360;2023-01-25T08:04:01;-1.40;98.90
39401;DHT22;54391;50.000;7.360;2023-01-25T08:06:29;-1.30;99.20
39401;DHT22;54391;50.000;7.360;2023-01-25T08:09:00;-1.30;98.40
39401;DHT22;54391;50.000;7.360;2023-01-25T08:11:28;-1.30;99.00
39401;DHT22;54391;50.000;7.360;2023-01-25T08:13:58;-1.20;99.10
39401;DHT22;54391;50.000;7.360;2023-01-25T08:16:27;-1.10;98.50
39401;DHT22;54391;50.000;7.360;2023-01-25T08:18:55;-1.30;97.40
39401;DHT22;54391;50.000;7.360;2023-01-25T08:21:22;-1.30;98.00
39401;DHT22;54391;50.000;7.360;2023-01-25T08:23:50;-1.50;96.40
39401;DHT22;54391;50.000;7.360;2023-01-25T08:26:17;-1.50;97.80
39401;DHT22;54391;50.000;7.360;2023-01-25T08:28:44;-1.30;98.00
39401;DHT22;54391;50.000;7.360;2023-01-25T08:31:13;-1.40;98.60
39401;DHT22;54391;50.000;7.360;2023-01-25T08:33:40;-1.30;98.90
39401;DHT22;54391;50.000;7.360;2023-01-25T08:36:10;-1.40;98.00
39401;DHT22;54391;50.000;7.360;2023-01-25T08:38:38;-1.40;98.00
39401;DHT22;54391;50.000;7.360;2023-01-25T08:41:05;-1.50;98.50
39401;DHT22;54391;50.000;7.360;2023-01-25T08:43:32;-1.40;98.90
39401;DHT22;54391;50.000;7.360;2023-01-25T08:45:59;-1.40;98.80
39401;DHT22;54391;50.000;7.360;2023-01-25T08:48:29;-1.00;99.30
39401;DHT22;54391;50.000;7.360;2023-01-25T08:50:56;-1.10;99.90
39401;DHT22;54391;50.000;7.360;2023-01-25T08:53:23;-1.10;99.10
39401;DHT22;54391;50.000;7.360;2023-01-25T08:55:52;-1.00;99.70
39401;DHT22;54391;50.000;7.360;2023-01-25T08:58:20;-0.80;99.40
39401;DHT22;54391;50.000;7.360;2023-01-25T09:00:47;-0.70;98.30
39401;DHT22;54391;50.000;7.360;2023-01-25T09:03:14;-0.80;97.90
39401;DHT22;54391;50.000;7.360;2023-01-25T09:05:49;-0.60;98.60
39401;DHT22;54391;50.000;7.360;2023-01-25T09:08:18;-0.60;95.30
39401;DHT22;54391;50.000;7.360;2023-01-25T09:10:45;-0.60;92.20
39401;DHT22;54391;50.000;7.360;2023-01-25T09:13:12;-0.70;92.00
39401;DHT22;54391;50.000;7.360;2023-01-25T09:15:39;-0.80;90.30
39401;DHT22;54391;50.000;7.360;2023-01-25T09:18:07;-0.90;92.20
39401;DHT22;54391;50.000;7.360;2023-01-25T09:20:34;-0.80;93.50
39401;DHT22;54391;50.000;7.360;2023-01-25T09:23:05;-0.80;94.00
39401;DHT22;54391;50.000;7.360;2023-01-25T09:25:32;-0.80;91.30
39401;DHT22;54391;50.000;7.360;2023-01-25T09:28:00;-0.60;94.00
39401;DHT22;54391;50.000;7.360;2023-01-25T09:30:36;-0.40;91.40
39401;DHT22;54391;50.000;7.360;2023-01-25T09:33:05;-0.30;89.60
39401;DHT22;54391;50.000;7.360;2023-01-25T09:35:32;-0.60;85.60
39401;DHT22;54391;50.000;7.360;2023-01-25T09:38:00;-0.80;83.40
39401;DHT22;54391;50.000;7.360;2023-01-25T09:40:31;-0.50;91.70
39401;DHT22;54391;50.000;7.360;2023-01-25T09:42:59;-0.60;89.00
39401;DHT22;54391;50.000;7.360;2023-01-25T09:45:30;-0.80;86.90
39401;DHT22;54391;50.000;7.360;2023-01-25T09:48:03;-0.50;90.10
39401;DHT22;54391;50.000;7.360;2023-01-25T09:50:32;-0.50;85.90
39401;DHT22;54391;50.000;7.360;2023-01-25T09:53:18;-0.50;85.00
39401;DHT22;54391;50.000;7.360;2023-01-25T09:55:50;-0.40;83.20
39401;DHT22;54391;50.000;7.360;2023-01-25T09:58:19;-0.60;81.00
39401;DHT22;54391;50.000;7.360;2023-01-25T10:00:48;-0.50;84.30
39401;DHT22;54391;50.000;7.360;2023-01-25T10:03:18;-0.30;79.00
39401;DHT22;54391;50.000;7.360;2023-01-25T10:05:47;-0.50;76.40
39401;DHT22;54391;50.000;7.360;2023-01-25T10:08:16;-0.20;81.20
39401;DHT22;54391;50.000;7.360;2023-01-25T10:10:45;-0.10;77.40
39401;DHT22;54391;50.000;7.360;2023-01-25T10:13:16;-0.20;75.50
39401;DHT22;54391;50.000;7.360;2023-01-25T10:15:46;-0.60;75.30
39401;DHT22;54391;50.000;7.360;2023-01-25T10:18:16;-0.30;83.60
39401;DHT22;54391;50.000;7.360;2023-01-25T10:20:46;-0.10;79.80
39401;DHT22;54391;50.000;7.360;2023-01-25T10:23:26;0.00;75.40
39401;DHT22;54391;50.000;7.360;2023-01-25T10:25:58;0.00;76.70
39401;DHT22;54391;50.000;7.360;2023-01-25T10:30:55;-0.20;73.00
39401;DHT22;54391;50.000;7.360;2023-01-25T10:33:23;0.00;74.90
39401;DHT22;54391;50.000;7.360;2023-01-25T10:35:52;0.20;75.60
39401;DHT22;54391;50.000;7.360;2023-01-25T10:38:23;0.20;68.70
39401;DHT22;54391;50.000;7.360;2023-01-25T10:40:52;0.20;69.40
39401;DHT22;54391;50.000;7.360;2023-01-25T10:43:21;0.00;65.50
39401;DHT22;54391;50.000;7.360;2023-01-25T10:45:48;0.00;67.80
39401;DHT22;54391;50.000;7.360;2023-01-25T10:48:18;-0.10;70.20
39401;DHT22;54391;50.000;7.360;2023-01-25T10:50:48;-0.10;69.10
39401;DHT22;54391;50.000;7.360;2023-01-25T10:53:22;0.10;71.40
39401;DHT22;54391;50.000;7.360;2023-01-25T10:55:57;0.10;70.40
39401;DHT22;54391;50.000;7.360;2023-01-25T11:00:52;0.00;71.90
39401;DHT22;54391;50.000;7.360;2023-01-25T11:03:21;0.10;71.20
39401;DHT22;54391;50.000;7.360;2023-01-25T11:05:52;0.00;70.10
39401;DHT22;54391;50.000;7.360;2023-01-25T11:08:20;0.10;68.90
39401;DHT22;54391;50.000;7.360;2023-01-25T11:10:48;0.20;71.90
39401;DHT22;54391;50.000;7.360;2023-01-25T11:13:19;0.10;68.60
39401;DHT22;54391;50.000;7.360;2023-01-25T11:15:48;0.30;70.30
39401;DHT22;54391;50.000;7.360;2023-01-25T11:18:17;0.30;69.40
39401;DHT22;54391;50.000;7.360;2023-01-25T11:20:46;0.40;66.50
39401;DHT22;54391;50.000;7.360;2023-01-25T11:23:19;0.40;68.50
39401;DHT22;54391;50.000;7.360;2023-01-25T11:25:47;0.10;64.50
39401;DHT22;54391;50.000;7.360;2023-01-25T11:28:18;0.20;68.90
39401;DHT22;54391;50.000;7.360;2023-01-25T11:30:45;0.30;64.80
39401;DHT22;54391;50.000;7.360;2023-01-25T11:33:13;0.30;67.30
39401;DHT22;54391;50.000;7.360;2023-01-25T11:35:46;0.10;62.20
39401;DHT22;54391;50.000;7.360;2023-01-25T11:38:17;0.30;67.10
39401;DHT22;54391;50.000;7.360;2023-01-25T11:40:46;0.30;58.50
39401;DHT22;54391;50.000;7.360;2023-01-25T11:43:18;0.40;64.50
39401;DHT22;54391;50.000;7.360;2023-01-25T11:46:00;0.30;61.10
39401;DHT22;54391;50.000;7.360;2023-01-25T11:48:38;0.30;61.40
39401;DHT22;54391;50.000;7.360;2023-01-25T11:51:12;0.30;61.10
39401;DHT22;54391;50.000;7.360;2023-01-25T11:53:48;0.40;61.90
39401;DHT22;54391;50.000;7.360;2023-01-25T11:56:20;0.60;63.70
39401;DHT22;54391;50.000;7.360;2023-01-25T11:58:57;0.50;57.60
39401;DHT22;54391;50.000;7.360;2023-01-25T12:01:32;0.40;59.80
39401;DHT22;54391;50.000;7.360;2023-01-25T12:04:11;0.50;59.80
39401;DHT22;54391;50.000;7.360;2023-01-25T12:06:46;0.40;58.30
39401;DHT22;54391;50.000;7.360;2023-01-25T12:09:36;0.50;59.80
39401;DHT22;54391;50.000;7.360;2023-01-25T12:12:09;0.50;60.70
39401;DHT22;54391;50.000;7.360;2023-01-25T12:14:41;0.20;61.40
39401;DHT22;54391;50.000;7.360;2023-01-25T12:17:15;0.30;64.30
39401;DHT22;54391;50.000;7.360;2023-01-25T12:22:37;0.40;62.70
39401;DHT22;54391;50.000;7.360;2023-01-25T12:25:08;0.30;62.50
39401;DHT22;54391;50.000;7.360;2023-01-25T12:27:45;0.60;64.10
39401;DHT22;54391;50.000;7.360;2023-01-25T12:30:17;0.40;57.00
39401;DHT22;54391;50.000;7.360;2023-01-25T12:32:48;0.30;59.30
39401;DHT22;54391;50.000;7.360;2023-01-25T12:35:21;0.00;59.80
39401;DHT22;54391;50.000;7.360;2023-01-25T12:37:50;0.10;65.10
39401;DHT22;54391;50.000;7.360;2023-01-25T12:40:21;0.00;61.10
39401;DHT22;54391;50.000;7.360;2023-01-25T12:42:51;0.00;65.40
39401;DHT22;54391;50.000;7.360;2023-01-25T12:45:20;0.20;68.30
39401;DHT22;54391;50.000;7.360;2023-01-25T12:47:48;0.20;65.80
39401;DHT22;54391;50.000;7.360;2023-01-25T12:50:17;0.30;64.90
39401;DHT22;54391;50.000;7.360;2023-01-25T12:52:46;0.30;63.00
39401;DHT22;54391;50.000;7.360;2023-01-25T12:55:16;0.40;65.20
39401;DHT22;54391;50.000;7.360;2023-01-25T12:57:46;0.50;65.90
39401;DHT22;54391;50.000;7.360;2023-01-25T13:00:17;0.30;58.20
39401;DHT22;54391;50.000;7.360;2023-01-25T13:02:59;0.10;58.80
39401;DHT22;54391;50.000;7.360;2023-01-25T13:05:28;-0.20;62.40
39401;DHT22;54391;50.000;7.360;2023-01-25T13:08:05;-0.20;64.90
39401;DHT22;54391;50.000;7.360;2023-01-25T13:10:38;0.10;71.30
39401;DHT22;54391;50.000;7.360;2023-01-25T13:13:18;0.20;71.90
39401;DHT22;54391;50.000;7.360;2023-01-25T13:15:46;0.40;67.50
39401;DHT22;54391;50.000;7.360;2023-01-25T13:18:35;0.10;63.80
39401;DHT22;54391;50.000;7.360;2023-01-25T13:21:03;0.10;63.20
39401;DHT22;54391;50.000;7.360;2023-01-25T13:23:33;-0.10;65.50
39401;DHT22;54391;50.000;7.360;2023-01-25T13:28:58;-0.10;66.20
39401;DHT22;54391;50.000;7.360;2023-01-25T13:31:43;0.00;66.60
39401;DHT22;54391;50.000;7.360;2023-01-25T13:34:11;0.00;65.10
39401;DHT22;54391;50.000;7.360;2023-01-25T13:36:43;-0.10;65.00
39401;DHT22;54391;50.000;7.360;2023-01-25T13:41:57;0.30;65.00
39401;DHT22;54391;50.000;7.360;2023-01-25T13:44:26;0.30;64.00
39401;DHT22;54391;50.000;7.360;2023-01-25T13:46:54;0.30;64.80
39401;DHT22;54391;50.000;7.360;2023-01-25T13:49:23;0.50;61.30
39401;DHT22;54391;50.000;7.360;2023-01-25T13:51:51;0.50;61.50
39401;DHT22;54391;50.000;7.360;2023-01-25T13:54:18;0.50;61.10
39401;DHT22;54391;50.000;7.360;2023-01-25T13:56:45;0.30;59.00
39401;DHT22;54391;50.000;7.360;2023-01-25T13:59:26;0.00;63.60
39401;DHT22;54391;50.000;7.360;2023-01-25T14:01:53;0.00;64.70
39401;DHT22;54391;50.000;7.360;2023-01-25T14:04:21;-0.10;62.30
39401;DHT22;54391;50.000;7.360;2023-01-25T14:06:48;-0.20;63.10
39401;DHT22;54391;50.000;7.360;2023-01-25T14:09:21;-0.10;68.00
39401;DHT22;54391;50.000;7.360;2023-01-25T14:11:48;-0.30;63.20
39401;DHT22;54391;50.000;7.360;2023-01-25T14:14:19;-0.30;67.80
39401;DHT22;54391;50.000;7.360;2023-01-25T14:16:59;-0.20;68.50
39401;DHT22;54391;50.000;7.360;2023-01-25T14:19:27;-0.10;66.80
39401;DHT22;54391;50.000;7.360;2023-01-25T14:22:10;0.00;66.60
39401;DHT22;54391;50.000;7.360;2023-01-25T14:24:37;0.00;63.60
39401;DHT22;54391;50.000;7.360;2023-01-25T14:27:05;-0.20;63.30
39401;DHT22;54391;50.000;7.360;2023-01-25T14:29:32;-0.30;67.40
39401;DHT22;54391;50.000;7.360;2023-01-25T14:32:01;-0.40;67.40
39401;DHT22;54391;50.000;7.360;2023-01-25T14:34:28;-0.70;68.60
39401;DHT22;54391;50.000;7.360;2023-01-25T14:37:05;-0.60;76.00
39401;DHT22;54391;50.000;7.360;2023-01-25T14:39:33;-0.40;72.50
39401;DHT22;54391;50.000;7.360;2023-01-25T14:42:00;-0.30;72.30
39401;DHT22;54391;50.000;7.360;2023-01-25T14:44:28;-0.30;72.90
39401;DHT22;54391;50.000;7.360;2023-01-25T14:47:19;-0.20;73.50
39401;DHT22;54391;50.000;7.360;2023-01-25T14:49:47;-0.20;73.40
39401;DHT22;54391;50.000;7.360;2023-01-25T14:52:15;-0.40;70.70
39401;DHT22;54391;50.000;7.360;2023-01-25T14:54:44;-0.50;67.80
39401;DHT22;54391;50.000;7.360;2023-01-25T14:57:21;-0.40;72.90
39401;DHT22;54391;50.000;7.360;2023-01-25T14:59:52;-0.50;68.00
39401;DHT22;54391;50.000;7.360;2023-01-25T15:02:22;-0.60;71.90
39401;DHT22;54391;50.000;7.360;2023-01-25T15:04:54;-0.60;74.50
39401;DHT22;54391;50.000;7.360;2023-01-25T15:07:32;-0.60;72.60
39401;DHT22;54391;50.000;7.360;2023-01-25T15:10:00;-0.70;77.60
39401;DHT22;54391;50.000;7.360;2023-01-25T15:12:29;-0.60;79.20
39401;DHT22;54391;50.000;7.360;2023-01-25T15:14:57;-0.70;77.10
39401;DHT22;54391;50.000;7.360;2023-01-25T15:20:27;-0.90;78.80
39401;DHT22;54391;50.000;7.360;2023-01-25T15:22:54;-0.80;78.30
39401;DHT22;54391;50.000;7.360;2023-01-25T15:25:21;-0.90;76.60
39401;DHT22;54391;50.000;7.360;2023-01-25T15:27:48;-1.00;78.10
39401;DHT22;54391;50.000;7.360;2023-01-25T15:30:16;-1.00;80.30
39401;DHT22;54391;50.000;7.360;2023-01-25T15:32:43;-1.00;78.40
39401;DHT22;54391;50.000;7.360;2023-01-25T15:35:11;-1.20;80.50
39401;DHT22;54391;50.000;7.360;2023-01-25T15:37:39;-1.20;81.60
39401;DHT22;54391;50.000;7.360;2023-01-25T15:40:07;-1.10;83.00
39401;DHT22;54391;50.000;7.360;2023-01-25T15:42:36;-1.10;82.30
39401;DHT22;54391;50.000;7.360;2023-01-25T15:45:03;-1.00;84.30
39401;DHT22;54391;50.000;7.360;2023-01-25T15:47:30;-1.00;86.70
39401;DHT22;54391;50.000;7.360;2023-01-25T15:49:57;-0.90;85.40
39401;DHT22;54391;50.000;7.360;2023-01-25T15:52:24;-0.80;88.30
39401;DHT22;54391;50.000;7.360;2023-01-25T15:54:53;-0.70;86.10
39401;DHT22;54391;50.000;7.360;2023-01-25T15:57:22;-0.80;84.30
39401;DHT22;54391;50.000;7.360;2023-01-25T15:59:50;-0.70;80.60
39401;DHT22;54391;50.000;7.360;2023-01-25T16:02:20;-0.80;77.70
39401;DHT22;54391;50.000;7.360;2023-01-25T16:04:47;-0.70;80.90
39401;DHT22;54391;50.000;7.360;2023-01-25T16:07:17;-0.80;78.50
39401;DHT22;54391;50.000;7.360;2023-01-25T16:09:47;-0.80;74.00